createdAt,value
2023-05-09T00:00:47.356Z,10.24
2023-05-09T00:03:14.509Z,10.30
2023-05-09T00:05:42.040Z,10.58
2023-05-09T00:08:08.718Z,10.44
2023-05-09T00:10:35.765Z,10.70
2023-05-09T00:13:02.497Z,10.69
2023-05-09T00:15:28.953Z,10.45
2023-05-09T00:17:55.796Z,10.42
2023-05-09T00:20:23.038Z,10.44
2023-05-09T00:22:50.096Z,10.08
2023-05-09T00:25:17.115Z,10.47
2023-05-09T00:27:47.068Z,10.40
2023-05-09T00:30:13.780Z,10.32
2023-05-09T00:32:41.691Z,10.25
2023-05-09T00:35:10.923Z,10.18
2023-05-09T00:37:37.864Z,9.97
2023-05-09T00:40:06.567Z,10.36
2023-05-09T00:42:33.559Z,10.45
2023-05-09T00:45:00.236Z,10.38
2023-05-09T00:47:27.800Z,10.34
2023-05-09T00:49:55.062Z,10.41
2023-05-09T00:52:23.515Z,10.44
2023-05-09T00:54:54.964Z,10.38
2023-05-09T00:57:22.509Z,10.45
2023-05-09T00:59:49.504Z,10.30
2023-05-09T01:02:17.894Z,10.11
2023-05-09T01:04:45.962Z,10.20
2023-05-09T01:07:38.111Z,9.97
2023-05-09T01:10:10.908Z,10.21
2023-05-09T01:12:56.252Z,10.02
2023-05-09T01:15:36.942Z,10.24
2023-05-09T01:18:16.358Z,10.11
2023-05-09T01:20:47.055Z,9.94
2023-05-09T01:23:44.680Z,9.94
2023-05-09T01:26:29.612Z,10.10
2023-05-09T01:29:12.602Z,9.88
2023-05-09T01:31:44.321Z,9.86
2023-05-09T01:34:14.881Z,9.80
2023-05-09T02:01:40.975Z,10.56
2023-05-09T02:04:08.096Z,10.06
2023-05-09T02:06:36.202Z,10.29
2023-05-09T02:09:03.088Z,10.07
2023-05-09T02:11:29.610Z,10.01
2023-05-09T02:13:56.347Z,9.85
2023-05-09T02:16:22.977Z,10.17
2023-05-09T02:18:49.557Z,9.91
2023-05-09T02:21:16.108Z,9.71
2023-05-09T02:23:46.801Z,9.60
2023-05-09T02:26:14.388Z,9.64
2023-05-09T02:28:43.489Z,9.90
2023-05-09T02:31:12.781Z,9.45
2023-05-09T02:33:44.716Z,9.72
2023-05-09T02:36:16.871Z,9.75
2023-05-09T02:38:44.271Z,9.76
2023-05-09T02:41:15.233Z,9.56
2023-05-09T02:43:42.704Z,9.55
2023-05-09T02:46:10.538Z,9.69
2023-05-09T02:48:38.622Z,9.67
2023-05-09T02:51:08.183Z,9.58
2023-05-09T02:53:36.912Z,9.40
2023-05-09T02:56:04.575Z,9.34
2023-05-09T02:58:31.082Z,9.74
2023-05-09T03:00:57.579Z,9.37
2023-05-09T03:03:27.850Z,9.85
2023-05-09T03:06:01.945Z,9.80
2023-05-09T03:08:32.746Z,9.48
2023-05-09T03:10:59.312Z,9.54
2023-05-09T03:13:26.488Z,9.76
2023-05-09T03:15:53.732Z,9.56
2023-05-09T03:18:20.639Z,9.47
2023-05-09T03:20:47.138Z,9.46
2023-05-09T03:23:14.068Z,9.28
2023-05-09T03:25:40.808Z,9.64
2023-05-09T03:28:08.837Z,9.48
2023-05-09T03:30:41.459Z,9.34
2023-05-09T03:33:10.303Z,8.98
2023-05-09T03:35:41.662Z,9.43
2023-05-09T03:38:08.647Z,9.19
2023-05-09T03:40:35.434Z,9.51
2023-05-09T03:43:01.820Z,9.62
2023-05-09T03:45:28.388Z,9.42
2023-05-09T03:47:56.001Z,9.38
2023-05-09T03:50:25.726Z,9.31
2023-05-09T03:52:55.479Z,9.14
2023-05-09T03:55:24.353Z,9.18
2023-05-09T03:57:51.364Z,9.58
2023-05-09T04:00:19.450Z,9.21
2023-05-09T04:02:46.460Z,9.31
2023-05-09T04:05:13.507Z,9.29
2023-05-09T04:07:40.315Z,9.43
2023-05-09T04:10:08.633Z,9.30
2023-05-09T04:12:35.716Z,9.66
2023-05-09T04:15:02.634Z,9.43
2023-05-09T04:17:35.691Z,9.27
2023-05-09T04:20:06.417Z,9.50
2023-05-09T04:22:34.378Z,9.68
2023-05-09T04:25:04.267Z,9.40
2023-05-09T04:27:30.730Z,9.33
2023-05-09T04:29:57.428Z,9.36
2023-05-09T04:32:24.250Z,9.55
2023-05-09T04:34:50.905Z,9.75
2023-05-09T04:37:17.705Z,9.30
2023-05-09T04:39:44.410Z,9.74
2023-05-09T04:42:11.047Z,9.34
2023-05-09T04:44:37.691Z,9.60
2023-05-09T04:47:04.289Z,9.87
2023-05-09T04:49:32.297Z,9.77
2023-05-09T04:51:59.356Z,9.78
2023-05-09T04:54:33.562Z,9.91
2023-05-09T04:57:09.832Z,9.74
2023-05-09T04:59:41.952Z,9.25
2023-05-09T05:02:08.527Z,9.58
2023-05-09T05:04:36.382Z,9.89
2023-05-09T05:07:03.719Z,9.73
2023-05-09T05:09:33.276Z,10.13
2023-05-09T05:12:02.416Z,10.03
2023-05-09T05:14:31.121Z,9.80
2023-05-09T05:16:57.591Z,9.84
2023-05-09T05:19:24.051Z,10.20
2023-05-09T05:21:54.255Z,10.31
2023-05-09T05:24:20.894Z,9.97
2023-05-09T05:26:47.462Z,9.80
2023-05-09T05:29:14.006Z,10.25
2023-05-09T05:31:40.694Z,10.24
2023-05-09T05:34:10.347Z,10.30
2023-05-09T05:36:37.409Z,10.34
2023-05-09T05:39:05.676Z,9.95
2023-05-09T05:41:34.530Z,10.18
2023-05-09T05:44:01.116Z,10.32
2023-05-09T05:46:27.892Z,10.63
2023-05-09T05:48:54.414Z,10.66
2023-05-09T05:51:25.217Z,10.46
2023-05-09T05:53:57.698Z,10.48
2023-05-09T05:56:25.054Z,10.42
2023-05-09T05:58:51.609Z,10.72
2023-05-09T06:01:22.445Z,10.91
2023-05-09T06:03:56.279Z,10.55
2023-05-09T06:06:23.846Z,10.99
2023-05-09T06:08:53.886Z,11.03
2023-05-09T06:11:25.130Z,10.73
2023-05-09T06:13:51.963Z,10.90
2023-05-09T06:16:23.330Z,11.52
2023-05-09T06:18:55.782Z,11.13
2023-05-09T06:21:24.557Z,11.07
2023-05-09T06:24:07.761Z,10.88
2023-05-09T06:26:39.950Z,11.06
2023-05-09T06:29:07.860Z,11.09
2023-05-09T06:31:43.887Z,11.28
2023-05-09T06:34:10.638Z,11.38
2023-05-09T06:36:39.531Z,11.37
2023-05-09T06:39:06.238Z,11.49
2023-05-09T06:41:35.160Z,11.44
2023-05-09T06:44:05.039Z,11.46
2023-05-09T06:46:31.732Z,11.22
2023-05-09T06:49:02.633Z,11.64
2023-05-09T06:51:29.491Z,11.62
2023-05-09T06:53:57.210Z,11.97
2023-05-09T06:56:26.538Z,11.83
2023-05-09T06:58:53.628Z,12.06
2023-05-09T07:01:20.135Z,12.13
2023-05-09T07:03:47.629Z,12.49
2023-05-09T07:06:14.291Z,12.88
2023-05-09T07:08:40.847Z,13.36
2023-05-09T07:11:11.069Z,13.74
2023-05-09T07:13:43.503Z,13.47
2023-05-09T07:16:27.488Z,13.75
2023-05-09T07:19:06.331Z,13.87
2023-05-09T07:21:44.871Z,13.80
2023-05-09T07:24:11.654Z,14.20
2023-05-09T07:26:38.470Z,14.27
2023-05-09T07:31:46.060Z,13.65
2023-05-09T07:34:12.560Z,14.06
2023-05-09T07:39:05.622Z,14.63
2023-05-09T07:41:32.483Z,14.60
2023-05-09T07:44:01.486Z,14.77
2023-05-09T07:46:28.388Z,15.44
2023-05-09T07:48:55.038Z,16.70
2023-05-09T07:51:21.928Z,17.77
2023-05-09T07:53:59.280Z,17.39
2023-05-09T07:56:26.548Z,17.11
2023-05-09T07:58:55.076Z,17.00
2023-05-09T08:01:25.200Z,17.02
2023-05-09T08:03:56.533Z,16.39
2023-05-09T08:06:26.391Z,15.45
2023-05-09T08:09:01.461Z,15.36
2023-05-09T08:11:28.248Z,15.38
2023-05-09T08:13:55.005Z,15.05
2023-05-09T08:16:21.980Z,15.06
2023-05-09T08:18:49.264Z,15.31
2023-05-09T08:21:15.688Z,15.46
2023-05-09T08:23:42.138Z,15.73
2023-05-09T08:26:08.637Z,15.37
2023-05-09T08:28:35.122Z,15.50
2023-05-09T08:31:02.296Z,15.42
2023-05-09T08:33:28.957Z,15.60
2023-05-09T08:35:56.435Z,15.51
2023-05-09T08:38:24.387Z,15.12
2023-05-09T08:40:51.041Z,15.32
2023-05-09T08:43:20.635Z,15.84
2023-05-09T08:45:53.802Z,16.77
2023-05-09T08:48:22.817Z,16.99
2023-05-09T08:50:49.948Z,16.71
2023-05-09T08:53:16.792Z,16.35
2023-05-09T08:55:45.397Z,16.35
2023-05-09T08:58:14.617Z,15.94
2023-05-09T09:00:42.064Z,15.91
2023-05-09T09:03:11.972Z,15.96
2023-05-09T09:05:42.582Z,16.26
2023-05-09T09:08:14.235Z,16.27
2023-05-09T09:10:47.691Z,16.14
2023-05-09T09:13:15.876Z,16.29
2023-05-09T09:15:45.382Z,16.40
2023-05-09T09:18:16.460Z,16.60
2023-05-09T09:20:56.508Z,16.54
2023-05-09T09:23:25.504Z,16.41
2023-05-09T09:26:00.507Z,16.41
2023-05-09T09:28:28.377Z,16.32
2023-05-09T09:30:54.939Z,16.31
2023-05-09T09:33:22.989Z,16.29
2023-05-09T09:35:51.237Z,16.28
2023-05-09T09:38:21.986Z,16.20
2023-05-09T09:40:51.401Z,16.52
2023-05-09T09:43:22.364Z,16.15
2023-05-09T09:45:51.047Z,16.60
2023-05-09T09:48:17.634Z,16.83
2023-05-09T09:50:44.178Z,16.76
2023-05-09T09:53:10.884Z,16.57
2023-05-09T09:55:37.389Z,16.72
2023-05-09T09:58:16.520Z,16.54
2023-05-09T10:00:43.101Z,16.62
2023-05-09T10:03:15.153Z,16.63
2023-05-09T10:05:43.626Z,16.71
2023-05-09T10:08:10.200Z,16.98
2023-05-09T10:10:37.948Z,16.99
2023-05-09T10:13:12.488Z,16.73
2023-05-09T10:15:52.121Z,17.01
2023-05-09T10:18:27.256Z,17.37
2023-05-09T10:20:55.067Z,17.39
2023-05-09T10:23:23.437Z,17.47
2023-05-09T10:26:00.286Z,17.68
2023-05-09T10:28:32.108Z,17.54
2023-05-09T10:31:10.321Z,17.47
2023-05-09T10:33:49.245Z,17.68
2023-05-09T10:36:19.591Z,17.76
2023-05-09T10:38:48.329Z,17.73
2023-05-09T10:41:19.040Z,17.61
2023-05-09T10:43:48.283Z,17.73
2023-05-09T10:46:16.089Z,17.25
2023-05-09T10:48:46.014Z,17.54
2023-05-09T10:51:13.272Z,17.49
2023-05-09T10:53:48.797Z,17.42
2023-05-09T10:56:35.989Z,17.80
2023-05-09T10:59:02.774Z,17.82
2023-05-09T11:01:37.526Z,17.97
2023-05-09T11:04:16.784Z,17.86
2023-05-09T11:06:47.804Z,17.65
2023-05-09T11:09:39.242Z,17.57
2023-05-09T11:12:06.169Z,17.38
2023-05-09T11:14:33.864Z,17.48
2023-05-09T11:17:04.507Z,17.74
2023-05-09T11:19:49.689Z,17.71
2023-05-09T11:22:17.676Z,17.87
2023-05-09T11:24:49.237Z,17.99
2023-05-09T11:27:22.926Z,18.06
2023-05-09T11:29:54.438Z,17.92
2023-05-09T11:32:23.207Z,18.22
2023-05-09T11:34:50.005Z,18.18
2023-05-09T11:37:17.796Z,18.38
2023-05-09T11:39:56.448Z,18.22
2023-05-09T11:42:28.637Z,18.04
2023-05-09T11:44:57.230Z,18.15
2023-05-09T11:47:24.972Z,18.33
2023-05-09T11:49:52.149Z,18.33
2023-05-09T11:52:20.327Z,18.53
2023-05-09T11:54:46.953Z,18.08
2023-05-09T11:57:24.882Z,18.01
2023-05-09T11:59:51.458Z,18.24
2023-05-09T12:02:18.178Z,18.25
2023-05-09T12:04:44.711Z,18.60
2023-05-09T12:07:14.438Z,18.65
2023-05-09T12:09:41.083Z,18.47
2023-05-09T12:12:11.856Z,18.50
2023-05-09T12:14:39.641Z,18.37
2023-05-09T12:17:14.758Z,18.21
2023-05-09T12:19:41.304Z,18.37
2023-05-09T12:22:09.998Z,18.60
2023-05-09T12:24:39.835Z,18.65
2023-05-09T12:27:08.040Z,18.39
2023-05-09T12:29:35.148Z,18.61
2023-05-09T12:32:01.669Z,18.64
2023-05-09T12:34:28.865Z,18.72
2023-05-09T12:36:55.313Z,18.72
2023-05-09T12:39:23.048Z,18.51
2023-05-09T12:42:00.962Z,18.59
2023-05-09T12:44:29.696Z,18.64
2023-05-09T12:47:02.016Z,18.85
2023-05-09T12:49:31.745Z,18.91
2023-05-09T12:52:02.983Z,18.93
2023-05-09T12:54:31.202Z,18.96
2023-05-09T12:56:58.675Z,18.56
2023-05-09T12:59:28.882Z,18.89
2023-05-09T13:02:00.646Z,18.78
2023-05-09T13:04:28.916Z,18.71
2023-05-09T13:06:57.606Z,18.92
2023-05-09T13:09:27.939Z,18.98
2023-05-09T13:11:54.546Z,18.71
2023-05-09T13:14:26.550Z,19.09
2023-05-09T13:16:54.322Z,18.68
2023-05-09T13:19:20.843Z,19.01
2023-05-09T13:21:47.949Z,18.90
2023-05-09T13:24:14.398Z,19.13
2023-05-09T13:26:40.921Z,19.09
2023-05-09T13:29:07.909Z,19.21
2023-05-09T13:31:34.552Z,19.31
2023-05-09T13:34:01.213Z,19.19
2023-05-09T13:36:27.675Z,19.28
2023-05-09T13:38:54.303Z,19.34
2023-05-09T13:41:22.547Z,19.50
2023-05-09T13:43:54.882Z,19.24
2023-05-09T13:46:21.540Z,19.34
2023-05-09T13:48:50.628Z,19.47
2023-05-09T13:51:18.644Z,19.41
2023-05-09T13:53:46.338Z,19.40
2023-05-09T13:56:14.640Z,19.52
2023-05-09T13:58:41.263Z,19.63
2023-05-09T14:01:13.817Z,19.69
2023-05-09T14:03:40.307Z,19.48
2023-05-09T14:06:08.748Z,19.64
2023-05-09T14:08:35.207Z,19.74
2023-05-09T14:11:01.922Z,19.71
2023-05-09T14:13:28.717Z,19.68
2023-05-09T14:15:55.317Z,19.57
2023-05-09T14:18:21.792Z,19.73
2023-05-09T14:20:48.448Z,19.54
2023-05-09T14:23:14.841Z,19.75
2023-05-09T14:25:41.281Z,19.63
2023-05-09T14:28:09.568Z,19.37
2023-05-09T14:30:36.425Z,19.46
2023-05-09T14:33:08.414Z,19.70
2023-05-09T14:35:34.958Z,19.59
2023-05-09T14:38:01.813Z,19.84
2023-05-09T14:40:32.182Z,19.57
2023-05-09T14:42:59.524Z,19.64
2023-05-09T14:45:26.508Z,19.61
2023-05-09T14:47:53.503Z,19.63
2023-05-09T14:50:21.783Z,19.79
2023-05-09T14:52:52.742Z,19.58
2023-05-09T14:55:19.910Z,19.87
2023-05-09T14:57:46.427Z,19.71
2023-05-09T15:00:21.405Z,19.41
2023-05-09T15:02:49.340Z,19.61
2023-05-09T15:05:16.866Z,19.71
2023-05-09T15:07:43.449Z,19.70
2023-05-09T15:10:10.475Z,19.37
2023-05-09T15:12:36.956Z,19.58
2023-05-09T15:15:15.147Z,19.39
2023-05-09T15:17:42.703Z,19.60
2023-05-09T15:20:09.745Z,19.84
2023-05-09T15:22:38.660Z,19.83
2023-05-09T15:25:06.296Z,19.85
2023-05-09T15:27:32.988Z,19.78
2023-05-09T15:29:59.448Z,19.77
2023-05-09T15:32:26.180Z,19.80
2023-05-09T15:34:52.967Z,19.79
2023-05-09T15:37:19.429Z,19.51
2023-05-09T15:39:46.369Z,19.75
2023-05-09T15:42:13.295Z,19.70
2023-05-09T15:44:40.984Z,19.42
2023-05-09T15:47:08.153Z,19.47
2023-05-09T15:49:34.932Z,19.54
2023-05-09T15:52:06.680Z,19.60
2023-05-09T15:54:34.189Z,19.55
2023-05-09T15:57:01.587Z,19.33
2023-05-09T15:59:28.361Z,19.46
2023-05-09T16:01:55.166Z,19.51
2023-05-09T16:04:22.196Z,19.48
2023-05-09T16:06:49.113Z,19.62
2023-05-09T16:09:15.835Z,19.34
2023-05-09T16:11:43.080Z,18.97
2023-05-09T16:14:11.834Z,19.29
2023-05-09T16:16:42.780Z,18.97
2023-05-09T16:19:09.937Z,19.01
2023-05-09T16:21:37.826Z,18.86
2023-05-09T16:24:05.050Z,18.72
2023-05-09T16:26:31.586Z,18.50
2023-05-09T16:28:58.097Z,18.47
2023-05-09T16:31:26.641Z,18.52
2023-05-09T16:33:54.164Z,18.53
2023-05-09T16:36:21.332Z,18.68
2023-05-09T16:38:48.558Z,18.73
2023-05-09T16:41:16.839Z,18.89
2023-05-09T16:43:43.465Z,18.50
2023-05-09T16:46:11.053Z,18.21
2023-05-09T16:48:37.591Z,18.30
2023-05-09T16:51:04.820Z,18.27
2023-05-09T16:53:31.283Z,18.15
2023-05-09T16:55:57.748Z,17.90
2023-05-09T16:58:25.254Z,17.83
2023-05-09T17:00:51.948Z,17.80
2023-05-09T17:03:18.450Z,17.72
2023-05-09T17:05:44.928Z,17.60
2023-05-09T17:08:11.482Z,17.84
2023-05-09T17:10:39.490Z,17.79
2023-05-09T17:13:08.753Z,17.53
2023-05-09T17:15:35.777Z,17.78
2023-05-09T17:18:03.126Z,17.44
2023-05-09T17:20:29.975Z,17.37
2023-05-09T17:22:57.041Z,17.42
2023-05-09T17:25:31.259Z,16.98
2023-05-09T17:27:57.827Z,17.42
2023-05-09T17:30:24.467Z,17.40
2023-05-09T17:32:51.029Z,17.51
2023-05-09T17:35:20.036Z,16.89
2023-05-09T17:37:46.876Z,16.95
2023-05-09T17:40:13.815Z,17.12
2023-05-09T17:42:41.853Z,16.79
2023-05-09T17:45:10.514Z,16.88
2023-05-09T17:47:37.707Z,16.98
2023-05-09T17:50:04.857Z,16.65
2023-05-09T17:52:31.692Z,16.72
2023-05-09T17:54:58.293Z,16.64
2023-05-09T17:57:24.813Z,16.51
2023-05-09T17:59:52.456Z,16.45
2023-05-09T18:02:23.904Z,16.48
2023-05-09T18:04:51.441Z,16.57
2023-05-09T18:07:18.266Z,16.26
2023-05-09T18:09:44.664Z,16.53
2023-05-09T18:12:11.197Z,16.35
2023-05-09T18:14:39.571Z,16.32
2023-05-09T18:17:06.125Z,16.14
2023-05-09T18:19:34.553Z,16.24
2023-05-09T18:22:01.683Z,15.94
2023-05-09T18:24:33.438Z,15.89
2023-05-09T18:26:59.888Z,15.75
2023-05-09T18:29:27.322Z,15.85
2023-05-09T18:31:56.091Z,15.78
2023-05-09T18:34:23.358Z,15.71
2023-05-09T18:36:52.474Z,15.80
2023-05-09T18:39:19.491Z,15.64
2023-05-09T18:41:46.017Z,15.70
2023-05-09T18:44:12.495Z,15.89
2023-05-09T18:46:39.064Z,15.63
2023-05-09T18:49:06.959Z,15.82
2023-05-09T18:51:35.744Z,15.85
2023-05-09T18:54:03.147Z,15.61
2023-05-09T18:56:29.697Z,15.65
2023-05-09T18:58:56.535Z,15.53
2023-05-09T19:01:24.494Z,15.64
2023-05-09T19:03:54.361Z,15.52
2023-05-09T19:06:21.848Z,15.43
2023-05-09T19:08:48.707Z,15.66
2023-05-09T19:11:15.146Z,15.66
2023-05-09T19:13:48.502Z,15.47
2023-05-09T19:16:17.415Z,15.46
2023-05-09T19:18:44.016Z,15.42
2023-05-09T19:21:11.040Z,14.98
2023-05-09T19:23:40.689Z,15.12
2023-05-09T19:26:45.983Z,15.21
2023-05-09T19:29:13.081Z,14.71
2023-05-09T19:31:39.691Z,14.86
2023-05-09T19:34:06.419Z,14.61
2023-05-09T19:36:34.463Z,15.09
2023-05-09T19:39:01.015Z,15.24
2023-05-09T19:41:27.522Z,15.18
2023-05-09T19:43:54.323Z,15.06
2023-05-09T19:46:24.866Z,14.89
2023-05-09T19:48:52.047Z,14.78
2023-05-09T19:51:18.617Z,14.98
2023-05-09T19:53:46.848Z,15.12
2023-05-09T19:56:13.867Z,15.02
2023-05-09T19:58:40.485Z,15.24
2023-05-09T20:01:07.295Z,15.02
2023-05-09T20:03:37.099Z,14.92
2023-05-09T20:06:04.216Z,14.99
2023-05-09T20:08:31.287Z,14.80
2023-05-09T20:10:57.762Z,14.60
2023-05-09T20:13:24.404Z,14.79
2023-05-09T20:15:51.117Z,14.57
2023-05-09T20:18:17.683Z,14.55
2023-05-09T20:20:46.971Z,14.63
2023-05-09T20:23:13.472Z,14.52
2023-05-09T20:25:40.035Z,14.47
2023-05-09T20:28:12.070Z,14.29
2023-05-09T20:30:38.957Z,14.28
2023-05-09T20:33:05.902Z,14.12
2023-05-09T20:35:32.710Z,14.08
2023-05-09T20:37:59.207Z,14.55
2023-05-09T20:40:25.813Z,14.19
2023-05-09T20:42:59.612Z,13.79
2023-05-09T20:45:26.415Z,14.03
2023-05-09T20:47:52.877Z,14.29
2023-05-09T20:50:19.568Z,14.15
2023-05-09T20:52:47.660Z,14.11
2023-05-09T20:55:14.244Z,14.08
2023-05-09T20:57:49.555Z,14.03
2023-05-09T21:00:16.548Z,14.22
2023-05-09T21:02:47.198Z,13.91
2023-05-09T21:05:14.296Z,13.70
2023-05-09T21:07:40.905Z,13.94
2023-05-09T21:10:17.083Z,13.95
2023-05-09T21:12:45.741Z,13.92
2023-05-09T21:15:12.408Z,13.98
2023-05-09T21:17:40.503Z,13.60
2023-05-09T21:20:08.095Z,13.67
2023-05-09T21:22:34.601Z,13.90
2023-05-09T21:25:01.212Z,13.93
2023-05-09T21:27:30.733Z,14.16
2023-05-09T21:29:58.308Z,14.13
2023-05-09T21:32:26.062Z,13.95
2023-05-09T21:41:38.408Z,13.87
2023-05-09T21:44:05.751Z,13.59
2023-05-09T21:46:35.180Z,13.66
2023-05-09T21:49:02.049Z,13.68
2023-05-09T21:51:28.669Z,13.69
2023-05-09T21:53:55.446Z,13.37
2023-05-09T21:56:22.264Z,13.70
2023-05-09T21:58:48.822Z,13.45
2023-05-09T22:01:16.692Z,13.80
2023-05-09T22:03:43.454Z,13.45
2023-05-09T22:06:10.018Z,13.58
2023-05-09T22:08:36.573Z,13.69
2023-05-09T22:11:03.298Z,13.61
2023-05-09T22:13:29.876Z,13.35
2023-05-09T22:15:56.684Z,13.62
2023-05-09T22:18:24.660Z,13.63
2023-05-09T22:20:53.819Z,13.17
2023-05-09T22:23:22.402Z,13.32
2023-05-09T22:25:49.267Z,13.28
2023-05-09T22:28:15.801Z,13.71
2023-05-09T22:30:42.259Z,13.06
2023-05-09T22:33:15.081Z,13.29
2023-05-09T22:39:36.877Z,13.29
2023-05-09T22:42:07.033Z,13.29
2023-05-09T22:44:33.679Z,13.46
2023-05-09T22:47:04.724Z,12.97
2023-05-09T22:49:46.970Z,13.09
2023-05-09T22:52:16.101Z,13.22
2023-05-09T22:54:44.114Z,13.07
2023-05-09T22:57:10.981Z,12.91
2023-05-09T22:59:39.849Z,13.38
2023-05-09T23:02:06.473Z,13.09
2023-05-09T23:04:32.975Z,13.14
2023-05-09T23:06:59.493Z,13.00
2023-05-09T23:09:27.726Z,13.29
2023-05-09T23:11:55.599Z,12.97
2023-05-09T23:14:24.670Z,12.80
2023-05-09T23:16:51.489Z,12.82
2023-05-09T23:19:18.106Z,13.04
2023-05-09T23:25:10.768Z,12.89
2023-05-09T23:27:40.874Z,12.90
2023-05-09T23:30:11.199Z,12.96
2023-05-09T23:32:37.816Z,13.03
2023-05-09T23:35:04.828Z,13.10
2023-05-09T23:37:38.132Z,13.21
2023-05-09T23:40:05.079Z,12.80
2023-05-09T23:42:33.822Z,12.63
2023-05-09T23:45:00.363Z,12.86
2023-05-09T23:47:27.034Z,12.90
2023-05-09T23:50:01.984Z,12.65
2023-05-09T23:52:28.483Z,12.72
2023-05-09T23:54:55.036Z,12.66
2023-05-09T23:57:24.874Z,12.79
2023-05-09T23:59:51.444Z,12.85
